sensor_id;sensor_type;location;lat;lon;timestamp;P1;durP1;ratioP1;P2;durP2;ratioP2
79452;SDS011;68899;52.116;5.404;2024-03-23T00:53:53;17.25;;;5.78;;
79452;SDS011;68899;52.116;5.404;2024-03-23T00:56:19;18.88;;;6.82;;
79452;SDS011;68899;52.116;5.404;2024-03-23T00:58:44;15.82;;;5.78;;
79452;SDS011;68899;52.116;5.404;2024-03-23T01:01:10;21.75;;;6.63;;
79452;SDS011;68899;52.116;5.404;2024-03-23T01:03:35;18.20;;;5.97;;
79452;SDS011;68899;52.116;5.404;2024-03-23T01:06:01;18.63;;;5.32;;
79452;SDS011;68899;52.116;5.404;2024-03-23T01:08:28;17.17;;;6.35;;
79452;SDS011;68899;52.116;5.404;2024-03-23T01:11:00;20.27;;;5.82;;
79452;SDS011;68899;52.116;5.404;2024-03-23T01:13:26;18.42;;;6.30;;
79452;SDS011;68899;52.116;5.404;2024-03-23T01:15:54;17.05;;;6.93;;
79452;SDS011;68899;52.116;5.404;2024-03-23T01:18:21;16.17;;;5.45;;
79452;SDS011;68899;52.116;5.404;2024-03-23T01:20:48;17.17;;;5.32;;
79452;SDS011;68899;52.116;5.404;2024-03-23T01:23:14;17.80;;;5.80;;
79452;SDS011;68899;52.116;5.404;2024-03-23T01:25:40;18.98;;;5.72;;
79452;SDS011;68899;52.116;5.404;2024-03-23T01:28:06;16.08;;;5.45;;
79452;SDS011;68899;52.116;5.404;2024-03-23T01:30:32;20.10;;;5.85;;
79452;SDS011;68899;52.116;5.404;2024-03-23T01:32:58;12.80;;;5.63;;
79452;SDS011;68899;52.116;5.404;2024-03-23T01:35:23;15.60;;;5.30;;
79452;SDS011;68899;52.116;5.404;2024-03-23T01:37:49;15.38;;;5.32;;
79452;SDS011;68899;52.116;5.404;2024-03-23T01:40:16;13.50;;;5.40;;
79452;SDS011;68899;52.116;5.404;2024-03-23T01:42:42;13.82;;;5.55;;
79452;SDS011;68899;52.116;5.404;2024-03-23T01:45:07;15.50;;;5.10;;
79452;SDS011;68899;52.116;5.404;2024-03-23T01:47:34;15.43;;;6.50;;
79452;SDS011;68899;52.116;5.404;2024-03-23T01:50:00;13.18;;;5.53;;
79452;SDS011;68899;52.116;5.404;2024-03-23T01:52:26;15.57;;;5.75;;
79452;SDS011;68899;52.116;5.404;2024-03-23T01:54:53;15.82;;;5.30;;
79452;SDS011;68899;52.116;5.404;2024-03-23T01:57:19;12.95;;;4.68;;
79452;SDS011;68899;52.116;5.404;2024-03-23T01:59:46;12.27;;;4.70;;
79452;SDS011;68899;52.116;5.404;2024-03-23T02:02:12;14.23;;;5.05;;
79452;SDS011;68899;52.116;5.404;2024-03-23T02:04:38;18.38;;;5.30;;
79452;SDS011;68899;52.116;5.404;2024-03-23T02:07:04;13.70;;;5.43;;
79452;SDS011;68899;52.116;5.404;2024-03-23T02:09:31;15.52;;;5.90;;
79452;SDS011;68899;52.116;5.404;2024-03-23T02:11:57;14.90;;;4.45;;
79452;SDS011;68899;52.116;5.404;2024-03-23T02:14:23;17.92;;;5.13;;
79452;SDS011;68899;52.116;5.404;2024-03-23T02:16:49;14.10;;;4.90;;
79452;SDS011;68899;52.116;5.404;2024-03-23T02:19:14;12.60;;;4.88;;
79452;SDS011;68899;52.116;5.404;2024-03-23T02:21:40;13.32;;;5.13;;
79452;SDS011;68899;52.116;5.404;2024-03-23T02:24:06;16.67;;;5.50;;
79452;SDS011;68899;52.116;5.404;2024-03-23T02:26:31;14.15;;;5.70;;
79452;SDS011;68899;52.116;5.404;2024-03-23T02:28:57;15.07;;;4.90;;
79452;SDS011;68899;52.116;5.404;2024-03-23T02:31:22;16.10;;;5.88;;
79452;SDS011;68899;52.116;5.404;2024-03-23T02:33:48;10.82;;;4.90;;
79452;SDS011;68899;52.116;5.404;2024-03-23T02:36:13;19.15;;;5.68;;
79452;SDS011;68899;52.116;5.404;2024-03-23T02:38:39;16.02;;;5.03;;
79452;SDS011;68899;52.116;5.404;2024-03-23T02:41:04;13.48;;;5.90;;
79452;SDS011;68899;52.116;5.404;2024-03-23T02:43:30;11.68;;;4.30;;
79452;SDS011;68899;52.116;5.404;2024-03-23T02:45:56;16.98;;;4.43;;
79452;SDS011;68899;52.116;5.404;2024-03-23T02:48:22;13.07;;;4.57;;
79452;SDS011;68899;52.116;5.404;2024-03-23T02:50:48;12.38;;;4.38;;
79452;SDS011;68899;52.116;5.404;2024-03-23T02:53:14;11.23;;;4.97;;
79452;SDS011;68899;52.116;5.404;2024-03-23T02:55:39;10.98;;;4.20;;
79452;SDS011;68899;52.116;5.404;2024-03-23T02:58:05;11.75;;;4.28;;
79452;SDS011;68899;52.116;5.404;2024-03-23T03:00:30;13.27;;;4.35;;
79452;SDS011;68899;52.116;5.404;2024-03-23T03:02:56;12.88;;;5.63;;
79452;SDS011;68899;52.116;5.404;2024-03-23T03:05:21;10.77;;;4.68;;
79452;SDS011;68899;52.116;5.404;2024-03-23T03:07:47;9.02;;;4.32;;
79452;SDS011;68899;52.116;5.404;2024-03-23T03:10:13;13.52;;;3.85;;
79452;SDS011;68899;52.116;5.404;2024-03-23T03:12:38;11.48;;;3.92;;
79452;SDS011;68899;52.116;5.404;2024-03-23T03:15:04;10.95;;;4.13;;
79452;SDS011;68899;52.116;5.404;2024-03-23T03:17:30;12.95;;;4.22;;
79452;SDS011;68899;52.116;5.404;2024-03-23T03:19:56;13.32;;;4.45;;
79452;SDS011;68899;52.116;5.404;2024-03-23T03:22:24;7.43;;;3.75;;
79452;SDS011;68899;52.116;5.404;2024-03-23T03:24:50;10.77;;;3.78;;
79452;SDS011;68899;52.116;5.404;2024-03-23T03:27:15;10.68;;;3.83;;
79452;SDS011;68899;52.116;5.404;2024-03-23T03:29:41;12.23;;;3.80;;
79452;SDS011;68899;52.116;5.404;2024-03-23T03:32:06;10.25;;;3.88;;
79452;SDS011;68899;52.116;5.404;2024-03-23T03:34:32;8.35;;;3.72;;
79452;SDS011;68899;52.116;5.404;2024-03-23T03:36:58;8.60;;;3.33;;
79452;SDS011;68899;52.116;5.404;2024-03-23T03:39:24;10.50;;;3.75;;
79452;SDS011;68899;52.116;5.404;2024-03-23T03:41:50;10.48;;;4.82;;
79452;SDS011;68899;52.116;5.404;2024-03-23T03:44:16;10.73;;;4.30;;
79452;SDS011;68899;52.116;5.404;2024-03-23T03:46:42;8.25;;;3.83;;
79452;SDS011;68899;52.116;5.404;2024-03-23T03:49:07;10.95;;;4.03;;
79452;SDS011;68899;52.116;5.404;2024-03-23T03:51:33;11.70;;;4.18;;
79452;SDS011;68899;52.116;5.404;2024-03-23T03:53:59;9.50;;;4.00;;
79452;SDS011;68899;52.116;5.404;2024-03-23T03:56:24;10.85;;;3.47;;
79452;SDS011;68899;52.116;5.404;2024-03-23T03:58:50;8.57;;;4.00;;
79452;SDS011;68899;52.116;5.404;2024-03-23T04:01:15;10.80;;;3.80;;
79452;SDS011;68899;52.116;5.404;2024-03-23T04:03:42;7.45;;;3.47;;
79452;SDS011;68899;52.116;5.404;2024-03-23T04:06:11;12.43;;;3.38;;
79452;SDS011;68899;52.116;5.404;2024-03-23T04:08:36;7.57;;;3.10;;
79452;SDS011;68899;52.116;5.404;2024-03-23T04:11:02;9.10;;;3.38;;
79452;SDS011;68899;52.116;5.404;2024-03-23T04:13:28;10.85;;;3.72;;
79452;SDS011;68899;52.116;5.404;2024-03-23T04:15:54;8.60;;;3.70;;
79452;SDS011;68899;52.116;5.404;2024-03-23T04:18:20;6.88;;;3.40;;
79452;SDS011;68899;52.116;5.404;2024-03-23T04:20:47;7.95;;;3.33;;
79452;SDS011;68899;52.116;5.404;2024-03-23T04:23:13;10.63;;;3.42;;
79452;SDS011;68899;52.116;5.404;2024-03-23T04:25:38;8.40;;;3.45;;
79452;SDS011;68899;52.116;5.404;2024-03-23T04:28:04;8.70;;;3.40;;
79452;SDS011;68899;52.116;5.404;2024-03-23T04:30:30;12.10;;;3.72;;
79452;SDS011;68899;52.116;5.404;2024-03-23T04:32:57;7.45;;;2.85;;
79452;SDS011;68899;52.116;5.404;2024-03-23T04:35:24;7.07;;;2.88;;
79452;SDS011;68899;52.116;5.404;2024-03-23T04:37:53;8.32;;;3.30;;
79452;SDS011;68899;52.116;5.404;2024-03-23T04:40:20;8.80;;;3.38;;
79452;SDS011;68899;52.116;5.404;2024-03-23T04:42:46;9.30;;;3.38;;
79452;SDS011;68899;52.116;5.404;2024-03-23T04:45:12;7.50;;;2.60;;
79452;SDS011;68899;52.116;5.404;2024-03-23T04:47:38;11.32;;;3.33;;
79452;SDS011;68899;52.116;5.404;2024-03-23T04:50:04;7.05;;;3.75;;
79452;SDS011;68899;52.116;5.404;2024-03-23T04:52:30;9.15;;;3.10;;
79452;SDS011;68899;52.116;5.404;2024-03-23T04:54:56;7.78;;;2.65;;
79452;SDS011;68899;52.116;5.404;2024-03-23T04:57:21;9.90;;;2.70;;
79452;SDS011;68899;52.116;5.404;2024-03-23T04:59:47;9.07;;;3.05;;
79452;SDS011;68899;52.116;5.404;2024-03-23T05:02:13;8.68;;;2.85;;
79452;SDS011;68899;52.116;5.404;2024-03-23T05:04:39;10.65;;;2.58;;
79452;SDS011;68899;52.116;5.404;2024-03-23T05:07:05;6.75;;;2.35;;
79452;SDS011;68899;52.116;5.404;2024-03-23T05:09:31;10.02;;;2.28;;
79452;SDS011;68899;52.116;5.404;2024-03-23T05:12:01;7.55;;;2.42;;
79452;SDS011;68899;52.116;5.404;2024-03-23T05:14:27;9.77;;;2.05;;
79452;SDS011;68899;52.116;5.404;2024-03-23T05:16:52;9.45;;;2.40;;
79452;SDS011;68899;52.116;5.404;2024-03-23T05:19:18;10.40;;;2.60;;
79452;SDS011;68899;52.116;5.404;2024-03-23T05:21:44;8.23;;;1.63;;
79452;SDS011;68899;52.116;5.404;2024-03-23T05:24:09;6.72;;;2.15;;
79452;SDS011;68899;52.116;5.404;2024-03-23T05:26:35;7.63;;;1.90;;
79452;SDS011;68899;52.116;5.404;2024-03-23T05:29:01;5.82;;;1.88;;
79452;SDS011;68899;52.116;5.404;2024-03-23T05:31:30;9.50;;;2.05;;
79452;SDS011;68899;52.116;5.404;2024-03-23T05:33:56;7.22;;;2.35;;
79452;SDS011;68899;52.116;5.404;2024-03-23T05:36:22;6.47;;;1.73;;
79452;SDS011;68899;52.116;5.404;2024-03-23T05:38:49;10.07;;;2.75;;
79452;SDS011;68899;52.116;5.404;2024-03-23T05:41:14;6.70;;;1.73;;
79452;SDS011;68899;52.116;5.404;2024-03-23T05:43:40;4.88;;;1.48;;
79452;SDS011;68899;52.116;5.404;2024-03-23T05:46:05;6.05;;;1.73;;
79452;SDS011;68899;52.116;5.404;2024-03-23T05:48:31;6.30;;;1.58;;
79452;SDS011;68899;52.116;5.404;2024-03-23T05:50:56;9.38;;;1.70;;
79452;SDS011;68899;52.116;5.404;2024-03-23T05:53:22;6.13;;;1.60;;
79452;SDS011;68899;52.116;5.404;2024-03-23T05:55:49;9.93;;;1.88;;
79452;SDS011;68899;52.116;5.404;2024-03-23T05:58:18;9.65;;;1.13;;
79452;SDS011;68899;52.116;5.404;2024-03-23T06:00:44;7.15;;;1.90;;
79452;SDS011;68899;52.116;5.404;2024-03-23T06:03:10;7.78;;;3.33;;
79452;SDS011;68899;52.116;5.404;2024-03-23T06:05:39;9.68;;;1.58;;
79452;SDS011;68899;52.116;5.404;2024-03-23T06:08:04;8.93;;;1.85;;
79452;SDS011;68899;52.116;5.404;2024-03-23T06:10:30;4.10;;;1.30;;
79452;SDS011;68899;52.116;5.404;2024-03-23T06:12:59;9.50;;;2.10;;
79452;SDS011;68899;52.116;5.404;2024-03-23T06:15:25;7.65;;;1.45;;
79452;SDS011;68899;52.116;5.404;2024-03-23T06:17:52;6.82;;;1.52;;
79452;SDS011;68899;52.116;5.404;2024-03-23T06:20:18;4.40;;;1.00;;
79452;SDS011;68899;52.116;5.404;2024-03-23T06:22:43;7.28;;;1.20;;
79452;SDS011;68899;52.116;5.404;2024-03-23T06:25:09;6.10;;;1.10;;
79452;SDS011;68899;52.116;5.404;2024-03-23T06:27:34;4.75;;;0.77;;
79452;SDS011;68899;52.116;5.404;2024-03-23T06:30:00;8.27;;;1.20;;
79452;SDS011;68899;52.116;5.404;2024-03-23T06:32:27;6.05;;;0.90;;
79452;SDS011;68899;52.116;5.404;2024-03-23T06:34:56;6.25;;;1.65;;
79452;SDS011;68899;52.116;5.404;2024-03-23T06:37:22;6.93;;;1.63;;
79452;SDS011;68899;52.116;5.404;2024-03-23T06:39:47;5.28;;;1.08;;
79452;SDS011;68899;52.116;5.404;2024-03-23T06:42:13;9.77;;;1.35;;
79452;SDS011;68899;52.116;5.404;2024-03-23T06:44:38;6.55;;;1.02;;
79452;SDS011;68899;52.116;5.404;2024-03-23T06:47:05;6.18;;;1.10;;
79452;SDS011;68899;52.116;5.404;2024-03-23T06:49:30;4.43;;;0.98;;
79452;SDS011;68899;52.116;5.404;2024-03-23T06:51:56;7.38;;;1.33;;
79452;SDS011;68899;52.116;5.404;2024-03-23T06:54:21;10.10;;;1.27;;
79452;SDS011;68899;52.116;5.404;2024-03-23T06:56:47;3.78;;;1.90;;
79452;SDS011;68899;52.116;5.404;2024-03-23T06:59:12;4.40;;;1.20;;
79452;SDS011;68899;52.116;5.404;2024-03-23T07:01:38;5.78;;;1.35;;
79452;SDS011;68899;52.116;5.404;2024-03-23T07:04:04;6.70;;;1.67;;
79452;SDS011;68899;52.116;5.404;2024-03-23T07:06:30;5.68;;;0.88;;
79452;SDS011;68899;52.116;5.404;2024-03-23T07:08:56;8.20;;;1.20;;
79452;SDS011;68899;52.116;5.404;2024-03-23T07:11:22;9.13;;;1.30;;
79452;SDS011;68899;52.116;5.404;2024-03-23T07:13:51;5.88;;;1.00;;
79452;SDS011;68899;52.116;5.404;2024-03-23T07:16:18;9.30;;;1.90;;
79452;SDS011;68899;52.116;5.404;2024-03-23T07:18:43;6.60;;;1.75;;
79452;SDS011;68899;52.116;5.404;2024-03-23T07:21:09;5.75;;;1.20;;
79452;SDS011;68899;52.116;5.404;2024-03-23T07:23:35;8.15;;;1.58;;
79452;SDS011;68899;52.116;5.404;2024-03-23T07:26:01;10.02;;;2.30;;
79452;SDS011;68899;52.116;5.404;2024-03-23T07:28:28;11.18;;;1.90;;
79452;SDS011;68899;52.116;5.404;2024-03-23T07:31:01;8.10;;;2.63;;
79452;SDS011;68899;52.116;5.404;2024-03-23T07:33:27;9.77;;;2.17;;
79452;SDS011;68899;52.116;5.404;2024-03-23T07:35:53;6.25;;;2.05;;
79452;SDS011;68899;52.116;5.404;2024-03-23T07:38:19;7.15;;;1.80;;
79452;SDS011;68899;52.116;5.404;2024-03-23T07:40:44;5.95;;;1.60;;
79452;SDS011;68899;52.116;5.404;2024-03-23T07:43:10;4.60;;;2.15;;
79452;SDS011;68899;52.116;5.404;2024-03-23T07:45:35;4.97;;;1.92;;
79452;SDS011;68899;52.116;5.404;2024-03-23T07:48:03;9.40;;;1.67;;
79452;SDS011;68899;52.116;5.404;2024-03-23T07:50:29;8.05;;;1.20;;
79452;SDS011;68899;52.116;5.404;2024-03-23T07:52:54;13.20;;;1.40;;
79452;SDS011;68899;52.116;5.404;2024-03-23T07:55:20;6.55;;;1.63;;
79452;SDS011;68899;52.116;5.404;2024-03-23T07:57:46;8.43;;;1.88;;
79452;SDS011;68899;52.116;5.404;2024-03-23T08:00:12;5.75;;;1.85;;
79452;SDS011;68899;52.116;5.404;2024-03-23T08:02:38;6.85;;;1.05;;
79452;SDS011;68899;52.116;5.404;2024-03-23T08:05:04;8.15;;;1.35;;
79452;SDS011;68899;52.116;5.404;2024-03-23T08:07:30;5.30;;;1.17;;
79452;SDS011;68899;52.116;5.404;2024-03-23T08:09:55;6.25;;;1.23;;
79452;SDS011;68899;52.116;5.404;2024-03-23T08:12:21;7.53;;;1.27;;
79452;SDS011;68899;52.116;5.404;2024-03-23T08:14:46;5.68;;;1.15;;
79452;SDS011;68899;52.116;5.404;2024-03-23T08:17:12;5.72;;;1.05;;
79452;SDS011;68899;52.116;5.404;2024-03-23T08:19:37;11.18;;;1.30;;
79452;SDS011;68899;52.116;5.404;2024-03-23T08:22:03;4.70;;;1.10;;
79452;SDS011;68899;52.116;5.404;2024-03-23T08:24:28;4.95;;;1.67;;
79452;SDS011;68899;52.116;5.404;2024-03-23T08:26:55;7.93;;;1.48;;
79452;SDS011;68899;52.116;5.404;2024-03-23T08:29:21;4.45;;;1.17;;
79452;SDS011;68899;52.116;5.404;2024-03-23T08:31:46;7.40;;;0.98;;
79452;SDS011;68899;52.116;5.404;2024-03-23T08:34:12;5.55;;;1.35;;
79452;SDS011;68899;52.116;5.404;2024-03-23T08:36:37;6.47;;;1.10;;
79452;SDS011;68899;52.116;5.404;2024-03-23T08:39:03;4.75;;;0.98;;
79452;SDS011;68899;52.116;5.404;2024-03-23T08:41:28;4.40;;;0.90;;
79452;SDS011;68899;52.116;5.404;2024-03-23T08:43:55;4.55;;;1.08;;
79452;SDS011;68899;52.116;5.404;2024-03-23T08:46:20;6.97;;;1.52;;
79452;SDS011;68899;52.116;5.404;2024-03-23T08:48:46;4.10;;;0.80;;
79452;SDS011;68899;52.116;5.404;2024-03-23T08:51:14;5.38;;;1.02;;
79452;SDS011;68899;52.116;5.404;2024-03-23T08:53:41;7.60;;;1.65;;
79452;SDS011;68899;52.116;5.404;2024-03-23T08:56:08;5.72;;;1.70;;
79452;SDS011;68899;52.116;5.404;2024-03-23T08:58:34;10.18;;;1.08;;
79452;SDS011;68899;52.116;5.404;2024-03-23T09:01:05;5.93;;;1.10;;
79452;SDS011;68899;52.116;5.404;2024-03-23T09:03:31;5.30;;;0.80;;
79452;SDS011;68899;52.116;5.404;2024-03-23T09:05:57;5.22;;;0.82;;
79452;SDS011;68899;52.116;5.404;2024-03-23T09:08:24;6.22;;;0.70;;
79452;SDS011;68899;52.116;5.404;2024-03-23T09:10:50;5.97;;;0.80;;
79452;SDS011;68899;52.116;5.404;2024-03-23T09:13:15;5.90;;;1.13;;
79452;SDS011;68899;52.116;5.404;2024-03-23T09:15:50;6.53;;;1.27;;
79452;SDS011;68899;52.116;5.404;2024-03-23T09:18:17;5.85;;;0.73;;
79452;SDS011;68899;52.116;5.404;2024-03-23T09:20:43;6.57;;;0.98;;
79452;SDS011;68899;52.116;5.404;2024-03-23T09:23:09;4.72;;;0.60;;
79452;SDS011;68899;52.116;5.404;2024-03-23T09:25:38;5.22;;;1.17;;
79452;SDS011;68899;52.116;5.404;2024-03-23T09:28:04;6.57;;;0.90;;
79452;SDS011;68899;52.116;5.404;2024-03-23T09:30:31;5.32;;;0.77;;
79452;SDS011;68899;52.116;5.404;2024-03-23T09:32:58;4.90;;;0.95;;
79452;SDS011;68899;52.116;5.404;2024-03-23T09:35:24;6.22;;;1.60;;
79452;SDS011;68899;52.116;5.404;2024-03-23T09:37:49;4.65;;;0.85;;
79452;SDS011;68899;52.116;5.404;2024-03-23T09:40:15;5.40;;;0.98;;
79452;SDS011;68899;52.116;5.404;2024-03-23T09:42:41;6.57;;;1.00;;
79452;SDS011;68899;52.116;5.404;2024-03-23T09:45:16;4.90;;;0.90;;
79452;SDS011;68899;52.116;5.404;2024-03-23T09:47:45;3.35;;;0.88;;
79452;SDS011;68899;52.116;5.404;2024-03-23T09:50:12;4.60;;;0.60;;
79452;SDS011;68899;52.116;5.404;2024-03-23T09:52:38;3.60;;;0.50;;
79452;SDS011;68899;52.116;5.404;2024-03-23T09:55:04;5.38;;;0.60;;
79452;SDS011;68899;52.116;5.404;2024-03-23T09:57:29;5.45;;;0.80;;
79452;SDS011;68899;52.116;5.404;2024-03-23T09:59:55;3.05;;;0.57;;
79452;SDS011;68899;52.116;5.404;2024-03-23T10:02:22;6.85;;;0.73;;
79452;SDS011;68899;52.116;5.404;2024-03-23T10:04:48;3.88;;;0.85;;
79452;SDS011;68899;52.116;5.404;2024-03-23T10:07:14;4.07;;;0.70;;
79452;SDS011;68899;52.116;5.404;2024-03-23T10:09:42;6.93;;;1.17;;
79452;SDS011;68899;52.116;5.404;2024-03-23T10:12:08;7.25;;;1.10;;
79452;SDS011;68899;52.116;5.404;2024-03-23T10:14:35;4.97;;;0.93;;
79452;SDS011;68899;52.116;5.404;2024-03-23T10:17:15;6.35;;;0.90;;
79452;SDS011;68899;52.116;5.404;2024-03-23T10:19:46;6.28;;;0.85;;
79452;SDS011;68899;52.116;5.404;2024-03-23T10:22:17;7.00;;;0.93;;
79452;SDS011;68899;52.116;5.404;2024-03-23T10:24:43;6.20;;;1.35;;
79452;SDS011;68899;52.116;5.404;2024-03-23T10:27:08;5.00;;;0.75;;
79452;SDS011;68899;52.116;5.404;2024-03-23T10:29:34;3.00;;;0.70;;
79452;SDS011;68899;52.116;5.404;2024-03-23T10:32:21;7.40;;;1.33;;
79452;SDS011;68899;52.116;5.404;2024-03-23T10:34:45;4.60;;;0.60;;
79452;SDS011;68899;52.116;5.404;2024-03-23T10:37:11;7.10;;;0.88;;
79452;SDS011;68899;52.116;5.404;2024-03-23T10:39:39;3.72;;;0.98;;
79452;SDS011;68899;52.116;5.404;2024-03-23T10:42:09;6.20;;;1.55;;
79452;SDS011;68899;52.116;5.404;2024-03-23T10:44:38;3.33;;;0.73;;
79452;SDS011;68899;52.116;5.404;2024-03-23T10:47:04;7.53;;;0.93;;
79452;SDS011;68899;52.116;5.404;2024-03-23T10:49:34;5.75;;;0.70;;
79452;SDS011;68899;52.116;5.404;2024-03-23T10:52:01;6.57;;;0.82;;
79452;SDS011;68899;52.116;5.404;2024-03-23T10:54:29;3.42;;;0.98;;
79452;SDS011;68899;52.116;5.404;2024-03-23T10:56:57;5.40;;;0.80;;
79452;SDS011;68899;52.116;5.404;2024-03-23T10:59:44;4.60;;;0.77;;
79452;SDS011;68899;52.116;5.404;2024-03-23T11:02:20;7.13;;;0.70;;
79452;SDS011;68899;52.116;5.404;2024-03-23T11:04:47;5.82;;;0.52;;
79452;SDS011;68899;52.116;5.404;2024-03-23T11:09:57;3.30;;;0.65;;
79452;SDS011;68899;52.116;5.404;2024-03-23T11:12:30;5.82;;;0.63;;
79452;SDS011;68899;52.116;5.404;2024-03-23T11:15:04;4.88;;;1.23;;
79452;SDS011;68899;52.116;5.404;2024-03-23T11:17:30;9.20;;;1.08;;
79452;SDS011;68899;52.116;5.404;2024-03-23T11:20:00;4.47;;;0.63;;
79452;SDS011;68899;52.116;5.404;2024-03-23T11:22:45;7.80;;;1.08;;
79452;SDS011;68899;52.116;5.404;2024-03-23T11:25:17;8.80;;;0.93;;
79452;SDS011;68899;52.116;5.404;2024-03-23T11:27:44;6.22;;;0.70;;
79452;SDS011;68899;52.116;5.404;2024-03-23T11:30:14;6.25;;;0.70;;
79452;SDS011;68899;52.116;5.404;2024-03-23T11:32:45;6.25;;;1.67;;
79452;SDS011;68899;52.116;5.404;2024-03-23T11:35:31;7.15;;;0.95;;
79452;SDS011;68899;52.116;5.404;2024-03-23T11:38:02;6.65;;;0.80;;
79452;SDS011;68899;52.116;5.404;2024-03-23T11:40:31;5.70;;;1.13;;
79452;SDS011;68899;52.116;5.404;2024-03-23T11:43:01;3.88;;;0.73;;
79452;SDS011;68899;52.116;5.404;2024-03-23T11:45:29;8.32;;;1.05;;
79452;SDS011;68899;52.116;5.404;2024-03-23T11:48:02;6.90;;;1.00;;
79452;SDS011;68899;52.116;5.404;2024-03-23T11:50:28;5.35;;;0.80;;
79452;SDS011;68899;52.116;5.404;2024-03-23T11:53:05;8.10;;;1.65;;
79452;SDS011;68899;52.116;5.404;2024-03-23T11:55:38;7.95;;;1.65;;
79452;SDS011;68899;52.116;5.404;2024-03-23T11:58:08;3.50;;;0.77;;
79452;SDS011;68899;52.116;5.404;2024-03-23T12:00:34;3.70;;;1.17;;
79452;SDS011;68899;52.116;5.404;2024-03-23T12:03:01;6.10;;;0.60;;
79452;SDS011;68899;52.116;5.404;2024-03-23T12:05:27;5.55;;;1.05;;
79452;SDS011;68899;52.116;5.404;2024-03-23T12:07:53;5.53;;;0.73;;
79452;SDS011;68899;52.116;5.404;2024-03-23T12:10:21;5.45;;;0.95;;
79452;SDS011;68899;52.116;5.404;2024-03-23T12:12:59;7.82;;;0.80;;
79452;SDS011;68899;52.116;5.404;2024-03-23T12:15:25;7.32;;;1.00;;
79452;SDS011;68899;52.116;5.404;2024-03-23T12:17:52;6.63;;;1.20;;
79452;SDS011;68899;52.116;5.404;2024-03-23T12:20:17;4.25;;;0.70;;
79452;SDS011;68899;52.116;5.404;2024-03-23T12:22:43;6.05;;;1.38;;
79452;SDS011;68899;52.116;5.404;2024-03-23T12:25:10;5.10;;;0.75;;
79452;SDS011;68899;52.116;5.404;2024-03-23T12:27:36;5.70;;;0.88;;
79452;SDS011;68899;52.116;5.404;2024-03-23T12:30:01;4.28;;;0.75;;
79452;SDS011;68899;52.116;5.404;2024-03-23T12:32:28;3.63;;;0.65;;
79452;SDS011;68899;52.116;5.404;2024-03-23T12:34:53;3.58;;;0.80;;
79452;SDS011;68899;52.116;5.404;2024-03-23T12:37:19;6.35;;;1.13;;
79452;SDS011;68899;52.116;5.404;2024-03-23T12:39:44;5.93;;;0.80;;
79452;SDS011;68899;52.116;5.404;2024-03-23T12:42:10;5.18;;;1.30;;
79452;SDS011;68899;52.116;5.404;2024-03-23T12:44:36;5.00;;;0.82;;
79452;SDS011;68899;52.116;5.404;2024-03-23T12:47:01;9.95;;;1.17;;
79452;SDS011;68899;52.116;5.404;2024-03-23T12:49:27;6.28;;;0.80;;
79452;SDS011;68899;52.116;5.404;2024-03-23T12:51:55;4.05;;;0.80;;
79452;SDS011;68899;52.116;5.404;2024-03-23T12:54:22;8.73;;;1.02;;
79452;SDS011;68899;52.116;5.404;2024-03-23T12:56:48;5.63;;;0.73;;
79452;SDS011;68899;52.116;5.404;2024-03-23T12:59:14;5.20;;;0.90;;
79452;SDS011;68899;52.116;5.404;2024-03-23T13:01:40;3.50;;;0.68;;
79452;SDS011;68899;52.116;5.404;2024-03-23T13:04:05;5.63;;;0.90;;
79452;SDS011;68899;52.116;5.404;2024-03-23T13:06:31;7.45;;;0.93;;
79452;SDS011;68899;52.116;5.404;2024-03-23T13:09:03;4.38;;;0.73;;
79452;SDS011;68899;52.116;5.404;2024-03-23T13:11:29;8.43;;;1.48;;
79452;SDS011;68899;52.116;5.404;2024-03-23T13:13:55;6.32;;;1.08;;
79452;SDS011;68899;52.116;5.404;2024-03-23T13:16:21;4.28;;;0.93;;
79452;SDS011;68899;52.116;5.404;2024-03-23T13:18:46;4.47;;;0.93;;
79452;SDS011;68899;52.116;5.404;2024-03-23T13:21:12;4.32;;;1.05;;
79452;SDS011;68899;52.116;5.404;2024-03-23T13:23:37;6.80;;;0.70;;
79452;SDS011;68899;52.116;5.404;2024-03-23T13:26:06;7.93;;;0.68;;
79452;SDS011;68899;52.116;5.404;2024-03-23T13:28:33;4.13;;;0.40;;
79452;SDS011;68899;52.116;5.404;2024-03-23T13:30:58;2.72;;;0.30;;
79452;SDS011;68899;52.116;5.404;2024-03-23T13:33:28;1.02;;;0.13;;
79452;SDS011;68899;52.116;5.404;2024-03-23T13:35:55;2.42;;;0.47;;
79452;SDS011;68899;52.116;5.404;2024-03-23T13:38:21;2.92;;;0.30;;
79452;SDS011;68899;52.116;5.404;2024-03-23T13:40:51;1.35;;;0.20;;
79452;SDS011;68899;52.116;5.404;2024-03-23T13:43:20;4.15;;;0.30;;
79452;SDS011;68899;52.116;5.404;2024-03-23T13:45:51;4.60;;;0.43;;
79452;SDS011;68899;52.116;5.404;2024-03-23T13:48:22;3.15;;;0.35;;
79452;SDS011;68899;52.116;5.404;2024-03-23T13:51:02;4.10;;;0.57;;
79452;SDS011;68899;52.116;5.404;2024-03-23T13:53:29;3.45;;;0.60;;
79452;SDS011;68899;52.116;5.404;2024-03-23T13:55:55;5.65;;;0.57;;
79452;SDS011;68899;52.116;5.404;2024-03-23T13:58:20;4.03;;;0.85;;
79452;SDS011;68899;52.116;5.404;2024-03-23T14:00:46;4.25;;;0.50;;
79452;SDS011;68899;52.116;5.404;2024-03-23T14:03:13;4.97;;;0.68;;
79452;SDS011;68899;52.116;5.404;2024-03-23T14:05:39;4.45;;;0.75;;
79452;SDS011;68899;52.116;5.404;2024-03-23T14:08:10;4.57;;;0.43;;
79452;SDS011;68899;52.116;5.404;2024-03-23T14:10:36;4.43;;;0.60;;
79452;SDS011;68899;52.116;5.404;2024-03-23T14:13:05;6.95;;;1.50;;
79452;SDS011;68899;52.116;5.404;2024-03-23T14:15:31;6.10;;;0.60;;
79452;SDS011;68899;52.116;5.404;2024-03-23T14:17:56;4.93;;;0.63;;
79452;SDS011;68899;52.116;5.404;2024-03-23T14:20:22;6.07;;;0.63;;
79452;SDS011;68899;52.116;5.404;2024-03-23T14:22:49;2.25;;;0.40;;
79452;SDS011;68899;52.116;5.404;2024-03-23T14:25:15;6.43;;;0.85;;
79452;SDS011;68899;52.116;5.404;2024-03-23T14:27:40;6.05;;;0.60;;
79452;SDS011;68899;52.116;5.404;2024-03-23T14:30:06;4.28;;;0.63;;
79452;SDS011;68899;52.116;5.404;2024-03-23T14:32:33;5.55;;;0.95;;
79452;SDS011;68899;52.116;5.404;2024-03-23T14:35:00;4.13;;;1.17;;
79452;SDS011;68899;52.116;5.404;2024-03-23T14:37:26;7.15;;;0.90;;
79452;SDS011;68899;52.116;5.404;2024-03-23T14:39:52;7.47;;;1.05;;
79452;SDS011;68899;52.116;5.404;2024-03-23T14:42:17;3.95;;;0.80;;
79452;SDS011;68899;52.116;5.404;2024-03-23T14:44:43;5.53;;;0.57;;
79452;SDS011;68899;52.116;5.404;2024-03-23T14:47:08;5.75;;;1.05;;
79452;SDS011;68899;52.116;5.404;2024-03-23T14:49:34;6.40;;;1.00;;
79452;SDS011;68899;52.116;5.404;2024-03-23T14:51:59;2.78;;;0.65;;
79452;SDS011;68899;52.116;5.404;2024-03-23T14:54:25;5.13;;;0.40;;
79452;SDS011;68899;52.116;5.404;2024-03-23T14:56:51;3.03;;;0.65;;
79452;SDS011;68899;52.116;5.404;2024-03-23T14:59:17;5.15;;;1.10;;
79452;SDS011;68899;52.116;5.404;2024-03-23T15:01:42;3.75;;;0.43;;
79452;SDS011;68899;52.116;5.404;2024-03-23T15:04:08;2.70;;;0.28;;
79452;SDS011;68899;52.116;5.404;2024-03-23T15:06:33;4.47;;;0.75;;
79452;SDS011;68899;52.116;5.404;2024-03-23T15:08:59;3.60;;;0.60;;
79452;SDS011;68899;52.116;5.404;2024-03-23T15:11:24;6.68;;;1.17;;
79452;SDS011;68899;52.116;5.404;2024-03-23T15:13:50;3.38;;;0.70;;
79452;SDS011;68899;52.116;5.404;2024-03-23T15:16:16;4.85;;;0.57;;
79452;SDS011;68899;52.116;5.404;2024-03-23T15:18:45;3.28;;;0.55;;
79452;SDS011;68899;52.116;5.404;2024-03-23T15:21:11;3.10;;;0.52;;
79452;SDS011;68899;52.116;5.404;2024-03-23T15:23:37;4.25;;;0.55;;
79452;SDS011;68899;52.116;5.404;2024-03-23T15:26:03;4.15;;;0.70;;
79452;SDS011;68899;52.116;5.404;2024-03-23T15:28:31;2.58;;;0.52;;
79452;SDS011;68899;52.116;5.404;2024-03-23T15:31:03;2.63;;;0.30;;
79452;SDS011;68899;52.116;5.404;2024-03-23T15:33:29;5.80;;;0.73;;
79452;SDS011;68899;52.116;5.404;2024-03-23T15:35:59;3.13;;;0.70;;
79452;SDS011;68899;52.116;5.404;2024-03-23T15:38:25;4.90;;;0.57;;